Time;durP1;ratioP1;P1;durP2;ratioP2;P2;SDS_P1;SDS_P2;PMS_P1;PMS_P2;Temp;Humidity;BMP_temperature;BMP_pressure;BME280_temperature;BME280_humidity;BME280_pressure;Samples;Min_cycle;Max_cycle;Signal;HPM_P1;HPM_P2
2023/07/19 00:01:23;;;;;;;13.67;12.87;;;16.50;1.00;;;;;;5079017;28;20188;-51
2023/07/19 00:03:49;;;;;;;13.10;12.30;;;16.50;1.00;;;;;;5062368;28;20185;-49
2023/07/19 00:06:14;;;;;;;13.90;13.00;;;16.40;1.00;;;;;;5068644;28;20529;-47
2023/07/19 00:08:40;;;;;;;13.00;12.20;;;16.30;1.00;;;;;;5066021;28;20180;-50
2023/07/19 00:11:06;;;;;;;13.37;12.23;;;16.30;1.00;;;;;;5072247;28;20572;-53
2023/07/19 00:13:31;;;;;;;12.17;11.43;;;16.20;1.00;;;;;;5077998;28;20671;-48
2023/07/19 00:15:57;;;;;;;13.20;12.40;;;16.20;1.00;;;;;;5065940;28;20188;-52
2023/07/19 00:18:23;;;;;;;13.00;11.83;;;16.10;1.00;;;;;;5076597;28;20259;-52
2023/07/19 00:20:49;;;;;;;12.60;11.90;;;16.10;1.00;;;;;;5059973;28;20435;-49
2023/07/19 00:23:15;;;;;;;12.67;12.07;;;16.10;1.00;;;;;;5077686;28;20271;-47
2023/07/19 00:25:40;;;;;;;12.73;11.93;;;16.00;1.00;;;;;;5066238;28;20233;-54
2023/07/19 00:28:06;;;;;;;13.00;12.10;;;16.10;1.00;;;;;;5073860;28;20843;-45
2023/07/19 00:30:32;;;;;;;13.40;12.60;;;16.00;1.00;;;;;;5067283;28;20495;-50
2023/07/19 00:32:58;;;;;;;14.40;12.87;;;16.00;1.00;;;;;;5078163;28;20196;-54
2023/07/19 00:35:23;;;;;;;12.83;12.13;;;15.90;1.00;;;;;;5069762;28;20749;-49
2023/07/19 00:37:49;;;;;;;12.93;12.23;;;15.90;1.00;;;;;;5069460;28;20214;-52
2023/07/19 00:40:14;;;;;;;12.43;11.83;;;15.80;1.00;;;;;;5078527;28;20192;-54
2023/07/19 00:42:40;;;;;;;13.20;12.50;;;15.80;1.00;;;;;;5077904;28;20177;-54
2023/07/19 00:45:06;;;;;;;12.70;11.80;;;15.70;1.00;;;;;;5070106;28;20189;-53
2023/07/19 00:47:33;;;;;;;12.20;11.50;;;15.70;1.00;;;;;;5075366;28;20440;-52
2023/07/19 00:49:59;;;;;;;13.07;12.27;;;15.70;1.00;;;;;;5078856;28;20436;-50
2023/07/19 00:52:25;;;;;;;12.80;12.00;;;15.60;1.00;;;;;;5069524;28;20442;-53
2023/07/19 00:54:51;;;;;;;12.20;11.50;;;15.60;1.00;;;;;;5067763;28;20205;-54
2023/07/19 00:57:17;;;;;;;14.67;13.63;;;15.60;1.00;;;;;;5069843;28;20422;-49
2023/07/19 00:59:44;;;;;;;12.57;11.77;;;15.60;1.00;;;;;;5072878;28;20181;-52
2023/07/19 01:02:10;;;;;;;12.00;11.40;;;15.50;1.00;;;;;;5061770;28;20522;-52
2023/07/19 01:04:36;;;;;;;12.73;12.07;;;15.50;1.00;;;;;;5066491;28;20438;-49
2023/07/19 01:07:04;;;;;;;12.73;11.90;;;15.40;1.00;;;;;;5063475;28;21202;-46
2023/07/19 01:09:31;;;;;;;12.77;11.87;;;15.40;1.00;;;;;;5070160;28;20802;-53
2023/07/19 01:11:57;;;;;;;12.20;11.50;;;15.40;1.00;;;;;;5072042;28;20452;-53
2023/07/19 01:14:22;;;;;;;12.37;11.73;;;15.30;1.00;;;;;;5076409;28;20457;-49
2023/07/19 01:16:48;;;;;;;12.00;11.40;;;15.30;1.00;;;;;;5070958;28;20642;-52
2023/07/19 01:19:16;;;;;;;12.37;11.67;;;15.30;1.00;;;;;;5072438;28;20874;-51
2023/07/19 01:21:41;;;;;;;12.47;11.77;;;15.20;1.00;;;;;;5073294;28;20279;-51
2023/07/19 01:24:07;;;;;;;12.87;12.17;;;15.20;1.00;;;;;;5074905;28;21245;-48
2023/07/19 01:26:33;;;;;;;12.83;12.23;;;15.20;1.00;;;;;;5065019;28;20540;-49
2023/07/19 01:28:59;;;;;;;12.50;11.80;;;15.10;44.00;;;;;;5079212;28;20271;-52
2023/07/19 01:31:24;;;;;;;12.70;12.00;;;15.10;99.90;;;;;;5081517;28;20427;-51
2023/07/19 01:33:50;;;;;;;12.40;11.70;;;15.00;99.90;;;;;;5077022;28;20298;-52
2023/07/19 01:36:16;;;;;;;12.40;11.70;;;15.00;99.90;;;;;;5064948;28;20584;-50
2023/07/19 01:38:42;;;;;;;12.57;11.87;;;15.00;99.90;;;;;;5077891;28;20442;-50
2023/07/19 01:41:07;;;;;;;12.50;11.80;;;15.00;99.90;;;;;;5080949;28;20185;-50
2023/07/19 01:43:35;;;;;;;12.73;12.03;;;14.90;99.90;;;;;;5079194;28;20180;-49
2023/07/19 01:46:00;;;;;;;12.30;11.70;;;14.90;99.90;;;;;;5071456;28;20442;-53
2023/07/19 01:48:26;;;;;;;12.47;11.70;;;14.80;99.90;;;;;;5081621;28;20854;-48
2023/07/19 01:50:52;;;;;;;12.70;12.00;;;14.80;99.90;;;;;;5081589;28;20192;-46
2023/07/19 01:53:17;;;;;;;14.07;13.17;;;14.80;99.90;;;;;;5075787;28;20204;-50
2023/07/19 01:55:43;;;;;;;13.50;12.70;;;14.70;1.00;;;;;;5064761;28;20185;-52
2023/07/19 01:58:09;;;;;;;14.03;13.13;;;14.70;1.00;;;;;;5077523;28;20194;-47
2023/07/19 02:00:35;;;;;;;13.70;12.90;;;14.60;1.00;;;;;;5080504;28;20196;-53
2023/07/19 02:03:01;;;;;;;14.07;13.27;;;14.60;1.00;;;;;;5070823;28;20443;-51
2023/07/19 02:05:27;;;;;;;14.23;13.33;;;14.50;38.90;;;;;;5070753;28;20450;-51
2023/07/19 02:07:52;;;;;;;13.57;12.67;;;14.50;51.40;;;;;;5079941;28;21022;-49
2023/07/19 02:10:18;;;;;;;12.70;12.00;;;14.50;96.40;;;;;;5079654;28;20202;-52
2023/07/19 02:12:44;;;;;;;14.17;13.17;;;14.50;99.90;;;;;;5064451;28;20450;-54
2023/07/19 02:15:10;;;;;;;13.97;13.03;;;14.50;99.90;;;;;;5061789;28;20181;-52
2023/07/19 02:17:36;;;;;;;13.77;12.90;;;14.50;99.90;;;;;;5061670;28;20365;-51
2023/07/19 02:20:02;;;;;;;12.60;11.90;;;14.40;99.90;;;;;;5066221;28;20805;-54
2023/07/19 02:22:27;;;;;;;13.30;12.50;;;14.40;99.90;;;;;;5060520;28;21146;-51
2023/07/19 02:24:53;;;;;;;12.87;12.17;;;14.40;99.90;;;;;;5062632;28;20557;-47
2023/07/19 02:27:19;;;;;;;12.73;12.03;;;14.40;99.90;;;;;;5061064;28;20280;-49
2023/07/19 02:29:45;;;;;;;13.10;12.23;;;14.30;99.90;;;;;;5061405;28;20481;-55
2023/07/19 02:32:12;;;;;;;12.70;12.00;;;14.30;99.90;;;;;;5059726;28;20189;-51
2023/07/19 02:34:37;;;;;;;13.23;12.43;;;14.30;99.90;;;;;;5060573;28;20548;-47
2023/07/19 02:37:03;;;;;;;12.73;12.03;;;14.30;1.00;;;;;;5060946;28;20435;-52
2023/07/19 02:39:30;;;;;;;11.97;11.27;;;14.30;1.00;;;;;;5061233;28;20180;-51
2023/07/19 02:41:57;;;;;;;13.73;12.57;;;14.30;1.00;;;;;;5061044;28;20415;-52
2023/07/19 02:44:23;;;;;;;13.20;12.40;;;14.20;1.00;;;;;;5060957;28;20881;-50
2023/07/19 02:46:48;;;;;;;12.77;12.07;;;14.20;99.90;;;;;;5060941;28;20511;-51
2023/07/19 02:49:14;;;;;;;13.30;12.50;;;14.20;1.00;;;;;;5060987;28;20217;-53
2023/07/19 02:51:40;;;;;;;13.23;12.33;;;14.10;99.90;;;;;;5061021;28;20182;-51
2023/07/19 02:54:05;;;;;;;13.80;13.03;;;14.00;1.00;;;;;;5060706;28;20467;-51
2023/07/19 02:56:31;;;;;;;13.60;12.70;;;14.00;99.90;;;;;;5060919;28;20189;-55
2023/07/19 02:58:56;;;;;;;14.03;13.13;;;14.00;99.90;;;;;;5060625;28;20181;-51
2023/07/19 03:01:22;;;;;;;13.60;12.80;;;14.00;1.00;;;;;;5069348;28;20200;-48
2023/07/19 03:03:48;;;;;;;12.70;12.00;;;14.00;1.00;;;;;;5060365;28;20189;-54
2023/07/19 03:06:14;;;;;;;13.20;12.40;;;14.00;99.90;;;;;;5067606;28;20660;-54
2023/07/19 03:08:40;;;;;;;13.40;12.50;;;13.90;99.90;;;;;;5074571;28;20513;-53
2023/07/19 03:11:08;;;;;;;13.20;12.27;;;13.90;1.00;;;;;;5070042;28;20754;-53
2023/07/19 03:13:34;;;;;;;13.33;12.53;;;13.90;99.90;;;;;;5074051;28;20225;-54
2023/07/19 03:16:00;;;;;;;13.10;12.30;;;13.80;1.00;;;;;;5071917;28;20426;-53
2023/07/19 03:18:26;;;;;;;13.07;12.30;;;13.80;99.90;;;;;;5076056;28;20439;-51
2023/07/19 03:21:02;;;;;;;13.33;12.13;;;13.80;1.00;;;;;;5059670;28;20180;-45
2023/07/19 03:23:30;;;;;;;13.27;12.43;;;13.80;99.90;;;;;;5068303;28;20537;-48
2023/07/19 03:25:58;;;;;;;14.03;13.07;;;13.70;99.90;;;;;;5066382;28;21044;-53
2023/07/19 03:28:28;;;;;;;13.50;12.53;;;13.70;1.00;;;;;;5075333;28;20797;-54
2023/07/19 03:30:54;;;;;;;12.83;12.03;;;13.70;1.00;;;;;;5062319;28;20794;-55
2023/07/19 03:33:26;;;;;;;14.63;13.40;;;13.70;1.00;;;;;;5079416;28;20472;-53
2023/07/19 03:35:52;;;;;;;13.90;13.00;;;13.60;1.00;;;;;;5077098;28;20782;-56
2023/07/19 03:38:18;;;;;;;14.90;14.00;;;13.60;1.00;;;;;;5079556;28;20418;-53
2023/07/19 03:40:44;;;;;;;14.23;13.33;;;13.60;1.00;;;;;;5075115;28;20222;-46
2023/07/19 03:43:10;;;;;;;12.83;12.13;;;13.60;1.00;;;;;;5076159;28;20502;-45
2023/07/19 03:45:36;;;;;;;11.90;11.20;;;13.60;1.00;;;;;;5074089;28;20460;-53
2023/07/19 03:48:02;;;;;;;13.13;12.23;;;13.60;1.00;;;;;;5079286;28;20187;-55
2023/07/19 03:50:28;;;;;;;12.50;11.70;;;13.60;1.00;;;;;;5067454;28;20783;-55
2023/07/19 03:52:53;;;;;;;13.00;12.20;;;13.60;99.90;;;;;;5073963;28;20445;-45
2023/07/19 03:55:19;;;;;;;12.30;11.50;;;13.60;99.90;;;;;;5078232;28;20180;-52
2023/07/19 03:57:45;;;;;;;11.70;11.10;;;13.60;99.90;;;;;;5076792;28;20511;-49
2023/07/19 04:00:11;;;;;;;12.30;11.60;;;13.60;99.90;;;;;;5066406;28;20223;-55
2023/07/19 04:02:37;;;;;;;13.03;12.23;;;13.70;99.90;;;;;;5071204;28;20425;-53
2023/07/19 04:05:02;;;;;;;13.60;12.43;;;13.60;99.90;;;;;;5065421;28;20426;-47
2023/07/19 04:07:28;;;;;;;13.37;12.57;;;13.60;99.90;;;;;;5077206;28;20621;-53
2023/07/19 04:09:54;;;;;;;13.83;12.70;;;13.60;99.90;;;;;;5070227;28;20564;-49
2023/07/19 04:12:19;;;;;;;13.50;12.70;;;13.70;99.90;;;;;;5078235;28;20290;-54
2023/07/19 04:14:45;;;;;;;13.50;12.60;;;13.70;99.90;;;;;;5064897;28;20270;-47
2023/07/19 04:17:11;;;;;;;12.83;11.93;;;13.70;99.90;;;;;;5066804;28;20656;-52
2023/07/19 04:19:37;;;;;;;12.43;11.70;;;13.70;99.90;;;;;;5060488;28;20187;-50
2023/07/19 04:22:03;;;;;;;12.80;12.00;;;13.70;99.90;;;;;;5061364;28;20442;-49
2023/07/19 04:24:28;;;;;;;13.40;12.60;;;13.80;99.90;;;;;;5064815;28;20281;-52
2023/07/19 04:26:55;;;;;;;12.63;11.93;;;13.80;99.90;;;;;;5077038;28;20626;-53
2023/07/19 04:29:21;;;;;;;13.37;12.57;;;13.80;99.90;;;;;;5069586;28;20552;-53
2023/07/19 04:31:47;;;;;;;11.97;11.30;;;13.80;99.90;;;;;;5064899;28;20447;-48
2023/07/19 04:34:13;;;;;;;12.40;11.70;;;13.90;99.90;;;;;;5075098;28;20463;-52
2023/07/19 04:36:39;;;;;;;12.47;11.80;;;13.90;99.90;;;;;;5081963;28;20425;-49
2023/07/19 04:39:05;;;;;;;12.80;12.10;;;13.90;1.00;;;;;;5079830;28;20562;-46
2023/07/19 04:41:32;;;;;;;12.77;11.97;;;14.00;1.00;;;;;;5071235;28;20601;-48
2023/07/19 04:43:58;;;;;;;12.87;11.97;;;14.10;99.90;;;;;;5078784;28;20180;-51
2023/07/19 04:46:24;;;;;;;13.07;12.37;;;14.20;99.90;;;;;;5078967;28;20928;-52
2023/07/19 04:48:49;;;;;;;12.47;11.77;;;14.20;1.00;;;;;;5075408;28;20180;-51
2023/07/19 04:51:15;;;;;;;11.97;11.27;;;14.20;1.00;;;;;;5082351;28;20444;-50
2023/07/19 04:53:40;;;;;;;12.37;11.67;;;14.30;28.60;;;;;;5074192;28;20213;-52
2023/07/19 04:56:06;;;;;;;12.57;11.87;;;14.30;99.90;;;;;;5081509;28;20180;-51
2023/07/19 04:58:32;;;;;;;13.40;12.53;;;14.30;69.10;;;;;;5082332;28;20185;-51
2023/07/19 05:01:08;;;;;;;12.63;11.93;;;14.30;1.00;;;;;;5067770;28;20212;-53
2023/07/19 05:03:34;;;;;;;13.10;12.30;;;14.30;21.60;;;;;;5072884;28;20185;-54
2023/07/19 05:06:00;;;;;;;13.10;12.30;;;14.40;1.00;;;;;;5079011;28;20963;-52
2023/07/19 05:08:26;;;;;;;12.80;12.00;;;14.40;1.00;;;;;;5073563;28;20436;-43
2023/07/19 05:10:52;;;;;;;12.07;11.37;;;14.50;99.90;;;;;;5066533;28;20234;-45
2023/07/19 05:13:17;;;;;;;12.77;11.97;;;14.60;1.00;;;;;;5081297;28;20926;-53
2023/07/19 05:15:43;;;;;;;12.93;12.07;;;14.70;99.90;;;;;;5082264;28;20267;-50
2023/07/19 05:18:08;;;;;;;11.93;11.30;;;14.70;1.00;;;;;;5081486;28;20230;-53
2023/07/19 05:20:34;;;;;;;11.70;11.00;;;14.80;1.00;;;;;;5066329;28;20541;-49
2023/07/19 05:23:00;;;;;;;12.57;11.87;;;14.90;1.00;;;;;;5081916;28;20188;-53
2023/07/19 05:25:25;;;;;;;12.40;11.40;;;15.00;1.00;;;;;;5081858;28;20702;-50
2023/07/19 05:27:51;;;;;;;12.77;12.07;;;15.00;1.00;;;;;;5081018;28;20226;-52
2023/07/19 05:30:17;;;;;;;12.17;11.37;;;15.10;1.00;;;;;;5069742;28;20565;-50
2023/07/19 05:32:43;;;;;;;12.60;11.80;;;15.20;1.00;;;;;;5076762;28;20423;-52
2023/07/19 05:35:08;;;;;;;12.43;11.60;;;15.20;99.90;;;;;;5081324;28;20243;-52
2023/07/19 05:37:34;;;;;;;11.60;10.90;;;15.30;52.80;;;;;;5080176;28;20184;-49
2023/07/19 05:39:59;;;;;;;12.90;12.00;;;15.40;1.00;;;;;;5073815;28;21064;-50
2023/07/19 05:42:25;;;;;;;12.53;11.83;;;15.50;1.00;;;;;;5076001;28;20245;-47
2023/07/19 05:44:51;;;;;;;12.40;11.60;;;15.60;1.00;;;;;;5081864;28;20187;-52
2023/07/19 05:47:17;;;;;;;12.60;11.90;;;15.80;1.00;;;;;;5081136;28;20435;-51
2023/07/19 05:49:42;;;;;;;11.90;11.30;;;15.90;1.00;;;;;;5075660;28;20197;-52
2023/07/19 05:52:08;;;;;;;12.30;11.60;;;16.00;99.90;;;;;;5075399;28;20777;-53
2023/07/19 05:54:34;;;;;;;12.77;12.00;;;16.10;99.90;;;;;;5074239;28;20212;-51
2023/07/19 05:56:59;;;;;;;12.73;11.93;;;16.20;99.90;;;;;;5081442;28;20265;-46
2023/07/19 05:59:25;;;;;;;12.60;11.97;;;16.40;99.90;;;;;;5079483;28;20224;-50
2023/07/19 06:01:50;;;;;;;11.77;11.07;;;16.50;99.90;;;;;;5081286;28;20180;-54
2023/07/19 06:04:16;;;;;;;11.93;11.23;;;16.60;85.40;;;;;;5075448;28;20803;-51
2023/07/19 06:06:42;;;;;;;11.87;11.27;;;16.80;34.90;;;;;;5074152;28;20656;-45
2023/07/19 06:09:08;;;;;;;11.93;11.23;;;16.90;1.00;;;;;;5077831;28;20185;-48
2023/07/19 06:11:34;;;;;;;12.70;11.90;;;17.00;1.00;;;;;;5080280;28;20220;-49
2023/07/19 06:14:01;;;;;;;12.63;12.03;;;17.20;1.00;;;;;;5076044;28;20543;-51
2023/07/19 06:16:26;;;;;;;11.97;11.37;;;17.20;1.00;;;;;;5081214;28;20768;-49
2023/07/19 06:18:52;;;;;;;12.30;11.60;;;17.30;1.00;;;;;;5072306;28;21172;-49
2023/07/19 06:21:18;;;;;;;13.17;12.43;;;17.50;1.00;;;;;;5076089;28;20475;-51
2023/07/19 06:23:43;;;;;;;12.07;11.47;;;17.60;1.00;;;;;;5080974;28;20188;-50
2023/07/19 06:26:10;;;;;;;11.73;11.17;;;17.70;1.00;;;;;;5077070;28;20232;-53
2023/07/19 06:28:36;;;;;;;12.93;12.23;;;17.80;1.00;;;;;;5080660;28;20188;-52
2023/07/19 06:31:02;;;;;;;11.70;11.00;;;18.00;1.00;;;;;;5079879;28;20436;-48
2023/07/19 06:33:29;;;;;;;13.57;12.77;;;18.20;1.00;;;;;;5080555;28;20628;-51
2023/07/19 06:35:55;;;;;;;12.70;12.03;;;18.30;1.00;;;;;;5066157;28;20188;-44
2023/07/19 06:38:20;;;;;;;11.90;11.30;;;18.40;1.00;;;;;;5080344;28;20479;-50
2023/07/19 06:40:46;;;;;;;12.87;12.07;;;18.50;1.00;;;;;;5075205;28;20442;-51
2023/07/19 06:43:11;;;;;;;12.90;12.10;;;18.60;1.00;;;;;;5080117;28;21212;-56
2023/07/19 06:45:37;;;;;;;12.03;11.43;;;18.60;1.00;;;;;;5080811;28;20188;-51
2023/07/19 06:48:03;;;;;;;11.80;11.30;;;18.80;1.00;;;;;;5079633;28;20505;-50
2023/07/19 06:50:30;;;;;;;12.43;11.73;;;19.00;1.00;;;;;;5077990;28;20234;-53
2023/07/19 06:52:55;;;;;;;13.13;12.13;;;19.10;1.00;;;;;;5079950;28;20185;-45
2023/07/19 06:55:23;;;;;;;12.00;11.40;;;19.20;1.00;;;;;;5077993;28;20598;-54
2023/07/19 06:57:48;;;;;;;12.20;11.40;;;19.30;1.00;;;;;;5080141;28;20187;-48
2023/07/19 07:00:14;;;;;;;11.43;10.83;;;19.40;1.00;;;;;;5076264;28;20414;-50
2023/07/19 07:02:40;;;;;;;11.33;10.73;;;19.50;1.00;;;;;;5068777;28;20184;-52
2023/07/19 07:05:05;;;;;;;12.50;11.90;;;19.70;1.00;;;;;;5078838;28;20271;-47
2023/07/19 07:07:31;;;;;;;11.87;11.27;;;19.70;1.00;;;;;;5077382;28;20192;-52
2023/07/19 07:09:58;;;;;;;11.73;10.93;;;19.90;99.90;;;;;;5080327;28;20688;-51
2023/07/19 07:12:24;;;;;;;11.90;11.20;;;20.00;99.90;;;;;;5065490;28;20450;-54
2023/07/19 07:14:49;;;;;;;11.53;10.73;;;20.10;99.90;;;;;;5079653;28;20821;-52
2023/07/19 07:17:15;;;;;;;11.97;11.37;;;20.20;99.90;;;;;;5078965;28;20422;-54
2023/07/19 07:19:40;;;;;;;11.80;11.20;;;20.40;99.90;;;;;;5066962;28;20181;-53
2023/07/19 07:22:06;;;;;;;12.40;11.70;;;20.50;99.90;;;;;;5060019;28;20185;-51
2023/07/19 07:24:31;;;;;;;12.10;11.50;;;20.70;99.90;;;;;;5059930;28;20289;-52
2023/07/19 07:26:57;;;;;;;10.13;9.63;;;20.90;99.90;;;;;;5060709;28;20220;-49
2023/07/19 07:29:23;;;;;;;10.40;9.90;;;21.00;99.90;;;;;;5059497;28;20197;-49
2023/07/19 07:31:48;;;;;;;11.63;11.03;;;21.10;99.90;;;;;;5072695;28;20549;-49
2023/07/19 07:34:14;;;;;;;11.70;11.10;;;21.30;99.90;;;;;;5071223;28;20220;-48
2023/07/19 07:36:40;;;;;;;12.00;11.40;;;21.40;99.90;;;;;;5079102;28;20188;-51
2023/07/19 07:39:06;;;;;;;10.87;10.27;;;21.50;99.90;;;;;;5068563;28;20193;-50
2023/07/19 07:41:32;;;;;;;11.80;10.90;;;21.70;99.90;;;;;;5069306;28;20233;-50
2023/07/19 07:43:59;;;;;;;11.70;11.00;;;21.80;99.90;;;;;;5062896;28;20533;-52
2023/07/19 07:46:25;;;;;;;11.87;11.27;;;22.00;99.90;;;;;;5071395;28;20513;-45
2023/07/19 07:48:51;;;;;;;11.80;11.20;;;22.10;99.90;;;;;;5068746;28;20808;-53
2023/07/19 07:51:18;;;;;;;12.30;11.23;;;22.30;99.90;;;;;;5069373;28;20998;-50
2023/07/19 07:53:43;;;;;;;11.87;11.27;;;22.40;99.90;;;;;;5074240;28;20694;-53
2023/07/19 07:56:09;;;;;;;11.57;10.87;;;22.60;99.90;;;;;;5078382;28;20513;-48
2023/07/19 07:58:35;;;;;;;12.00;11.07;;;22.70;99.90;;;;;;5078204;28;20191;-52
2023/07/19 08:01:00;;;;;;;11.93;11.43;;;22.90;99.90;;;;;;5067022;28;20308;-46
2023/07/19 08:03:26;;;;;;;11.53;11.00;;;23.00;99.90;;;;;;5062203;28;20184;-52
2023/07/19 08:05:54;;;;;;;12.03;11.27;;;23.20;99.90;;;;;;5069506;28;20188;-48
2023/07/19 08:08:19;;;;;;;11.63;11.03;;;23.40;99.90;;;;;;5078016;28;20658;-47
2023/07/19 08:10:45;;;;;;;11.97;11.37;;;23.50;99.90;;;;;;5068647;28;20439;-52
2023/07/19 08:13:11;;;;;;;12.10;11.40;;;23.80;99.90;;;;;;5072303;28;20192;-52
2023/07/19 08:15:37;;;;;;;11.90;11.30;;;23.90;99.90;;;;;;5078957;28;20853;-44
2023/07/19 08:18:02;;;;;;;11.83;11.13;;;24.20;99.90;;;;;;5078621;28;20425;-45
2023/07/19 08:20:29;;;;;;;11.20;10.70;;;24.40;99.90;;;;;;5063461;28;20173;-49
2023/07/19 08:22:54;;;;;;;11.20;10.70;;;24.60;99.90;;;;;;5067985;28;20211;-55
2023/07/19 08:25:21;;;;;;;11.37;10.70;;;24.90;99.90;;;;;;5061863;28;20965;-53
2023/07/19 08:27:47;;;;;;;11.23;10.73;;;25.10;99.90;;;;;;5078755;28;20184;-54
2023/07/19 08:30:15;;;;;;;11.33;10.77;;;25.30;99.90;;;;;;5066734;28;20449;-50
2023/07/19 08:32:48;;;;;;;11.67;11.17;;;25.50;99.90;;;;;;5059581;28;20421;-53
2023/07/19 08:35:17;;;;;;;11.40;10.80;;;25.70;1.00;;;;;;5059539;28;20961;-53
2023/07/19 08:37:44;;;;;;;11.23;10.63;;;25.90;1.00;;;;;;5059653;28;20411;-47
2023/07/19 08:40:15;;;;;;;11.00;10.50;;;26.20;1.00;;;;;;5057040;28;20443;-53
2023/07/19 08:42:41;;;;;;;11.27;10.57;;;26.40;99.90;;;;;;5059327;28;20838;-51
2023/07/19 08:45:09;;;;;;;12.23;11.63;;;26.80;99.90;;;;;;5059399;28;20415;-48
2023/07/19 08:47:37;;;;;;;10.97;10.30;;;27.10;99.90;;;;;;5059388;28;20419;-52
2023/07/19 08:50:07;;;;;;;10.83;10.33;;;27.50;99.90;;;;;;5068754;28;20436;-50
2023/07/19 08:52:33;;;;;;;11.53;10.93;;;27.90;99.90;;;;;;5065476;28;20426;-52
2023/07/19 08:55:03;;;;;;;11.43;10.30;;;28.10;99.90;;;;;;5070446;28;20462;-50
2023/07/19 08:57:29;;;;;;;11.57;10.97;;;28.30;99.90;;;;;;5074783;28;20415;-50
2023/07/19 08:59:54;;;;;;;11.60;11.00;;;28.50;99.90;;;;;;5070847;28;20460;-49
2023/07/19 09:02:20;;;;;;;12.10;11.33;;;28.70;99.90;;;;;;5075299;28;20185;-55
2023/07/19 09:05:05;;;;;;;11.77;11.10;;;28.70;99.90;;;;;;5075132;28;21406;-51
2023/07/19 09:07:31;;;;;;;12.33;11.63;;;28.70;99.90;;;;;;5080512;28;20649;-50
2023/07/19 09:09:59;;;;;;;11.33;10.73;;;28.80;99.90;;;;;;5074593;28;20949;-50
2023/07/19 09:12:33;;;;;;;11.10;10.50;;;28.90;99.90;;;;;;5076406;28;20425;-49
2023/07/19 09:15:00;;;;;;;12.07;11.47;;;29.10;99.90;;;;;;5069408;28;20576;-51
2023/07/19 09:17:28;;;;;;;11.50;10.90;;;29.20;99.90;;;;;;5081462;28;20426;-50
2023/07/19 09:19:54;;;;;;;10.73;10.13;;;29.30;99.90;;;;;;5066764;28;20463;-51
2023/07/19 09:22:20;;;;;;;11.63;11.03;;;29.60;99.90;;;;;;5076090;28;20508;-49
2023/07/19 09:25:01;;;;;;;11.60;11.00;;;29.90;99.90;;;;;;5081920;28;20239;-52
2023/07/19 09:27:28;;;;;;;10.87;10.30;;;30.30;99.90;;;;;;5081816;28;20352;-49
2023/07/19 09:29:53;;;;;;;11.80;11.20;;;30.70;99.90;;;;;;5079807;28;20879;-48
2023/07/19 09:32:19;;;;;;;11.47;10.90;;;30.70;99.90;;;;;;5080419;28;20414;-51
2023/07/19 09:34:45;;;;;;;12.27;11.63;;;30.70;99.90;;;;;;5081623;28;20466;-50
2023/07/19 09:37:11;;;;;;;10.03;9.63;;;30.40;99.90;;;;;;5080577;28;20187;-50
2023/07/19 09:39:37;;;;;;;10.43;9.93;;;30.10;99.90;;;;;;5077711;28;20215;-51
2023/07/19 09:42:03;;;;;;;10.30;9.80;;;29.60;99.90;;;;;;5075185;28;20188;-50
2023/07/19 09:44:30;;;;;;;11.00;10.47;;;29.80;99.90;;;;;;5081573;28;20433;-51
2023/07/19 09:46:57;;;;;;;11.00;10.50;;;30.30;99.90;;;;;;5081236;28;20501;-50
2023/07/19 09:49:23;;;;;;;11.87;11.27;;;31.20;99.90;;;;;;5079868;28;20534;-52
2023/07/19 09:51:50;;;;;;;11.03;10.50;;;32.00;99.90;;;;;;5081152;28;20515;-51
2023/07/19 09:54:16;;;;;;;11.60;11.00;;;32.10;99.90;;;;;;5076101;28;20806;-49
2023/07/19 09:56:43;;;;;;;11.30;10.70;;;32.30;99.90;;;;;;5069107;28;20982;-49
2023/07/19 09:59:18;;;;;;;11.23;10.73;;;32.20;99.90;;;;;;5080286;28;20419;-54
2023/07/19 10:01:44;;;;;;;10.97;10.47;;;32.20;99.90;;;;;;5074720;28;21068;-50
2023/07/19 10:04:29;;;;;;;10.70;9.90;;;32.80;99.90;;;;;;5055702;28;20504;-51
2023/07/19 10:07:07;;;;;;;11.90;11.20;;;33.30;99.90;;;;;;5078138;28;20180;-53
2023/07/19 10:09:44;;;;;;;11.90;11.40;;;33.90;99.90;;;;;;5078753;28;20712;-53
2023/07/19 10:12:31;;;;;;;11.60;11.00;;;33.80;99.90;;;;;;5080308;28;20413;-51
2023/07/19 10:15:04;;;;;;;10.63;10.10;;;33.90;99.90;;;;;;5080777;28;20462;-54
2023/07/19 10:17:50;;;;;;;11.57;10.87;;;34.00;99.90;;;;;;5080788;28;20407;-53
2023/07/19 10:20:15;;;;;;;11.70;11.10;;;34.30;99.90;;;;;;5070646;28;20435;-53
2023/07/19 10:22:55;;;;;;;10.97;10.47;;;35.20;99.90;;;;;;5074900;28;20449;-51
2023/07/19 10:25:27;;;;;;;11.67;11.07;;;35.70;99.90;;;;;;5079023;28;20278;-53
2023/07/19 10:28:04;;;;;;;12.10;11.60;;;36.20;99.90;;;;;;5076330;28;20824;-50
2023/07/19 10:30:49;;;;;;;10.93;10.53;;;36.90;99.90;;;;;;5071119;28;21178;-53
2023/07/19 10:33:19;;;;;;;12.60;12.00;;;36.50;99.90;;;;;;5080473;28;21012;-50
2023/07/19 10:35:45;;;;;;;12.50;11.70;;;36.40;99.90;;;;;;5080278;28;20874;-55
2023/07/19 10:38:18;;;;;;;11.27;10.77;;;36.90;99.90;;;;;;5079691;28;20442;-48
2023/07/19 10:40:47;;;;;;;11.60;11.00;;;37.30;99.90;;;;;;5068531;28;20435;-50
2023/07/19 10:43:14;;;;;;;11.37;10.77;;;36.70;99.90;;;;;;5062642;28;20789;-48
2023/07/19 10:45:40;;;;;;;12.43;11.83;;;36.80;99.90;;;;;;5080483;28;20421;-51
2023/07/19 10:48:06;;;;;;;11.67;11.17;;;36.80;99.90;;;;;;5080358;28;20860;-53
2023/07/19 10:50:31;;;;;;;12.23;11.73;;;37.10;99.90;;;;;;5079005;28;20496;-50
2023/07/19 10:52:57;;;;;;;12.60;11.90;;;36.90;99.90;;;;;;5079652;28;20204;-49
2023/07/19 10:55:23;;;;;;;11.97;11.37;;;36.70;99.90;;;;;;5067998;28;20238;-52
2023/07/19 10:57:49;;;;;;;11.20;10.70;;;36.80;99.90;;;;;;5079000;28;20208;-52
2023/07/19 11:00:15;;;;;;;11.00;10.33;;;36.80;99.90;;;;;;5073931;28;20181;-48
2023/07/19 11:02:40;;;;;;;11.93;11.33;;;37.00;99.90;;;;;;5062932;28;20185;-51
2023/07/19 11:05:07;;;;;;;11.40;10.80;;;37.40;99.90;;;;;;5070023;28;20248;-51
2023/07/19 11:07:33;;;;;;;11.40;10.90;;;37.70;99.90;;;;;;5080010;28;20311;-51
2023/07/19 11:10:01;;;;;;;11.80;11.30;;;37.60;99.90;;;;;;5079194;28;20414;-50
2023/07/19 11:12:27;;;;;;;12.33;11.57;;;36.30;99.90;;;;;;5077199;28;20736;-44
2023/07/19 11:14:58;;;;;;;11.83;11.30;;;36.20;99.90;;;;;;5079855;28;20497;-52
2023/07/19 11:17:28;;;;;;;12.47;11.87;;;36.90;99.90;;;;;;5076572;28;20557;-43
2023/07/19 11:19:55;;;;;;;12.40;11.80;;;36.80;99.90;;;;;;5064260;28;20504;-46
2023/07/19 11:22:23;;;;;;;12.50;11.90;;;36.20;99.90;;;;;;5079686;28;20708;-50
2023/07/19 11:24:50;;;;;;;11.73;11.13;;;35.70;99.90;;;;;;5064755;28;20630;-45
2023/07/19 11:27:17;;;;;;;11.80;11.20;;;35.40;99.90;;;;;;5079751;28;20521;-44
2023/07/19 11:29:47;;;;;;;12.53;11.93;;;35.20;99.90;;;;;;5071147;28;20542;-48
2023/07/19 11:32:18;;;;;;;12.17;11.57;;;35.10;99.90;;;;;;5079963;28;20421;-47
2023/07/19 11:34:46;;;;;;;12.30;11.70;;;34.90;99.90;;;;;;5079572;28;20462;-45
2023/07/19 11:37:17;;;;;;;11.90;11.40;;;34.80;99.90;;;;;;5076649;28;20414;-48
2023/07/19 11:39:42;;;;;;;11.80;11.20;;;35.00;99.90;;;;;;5077179;28;20423;-46
2023/07/19 11:42:08;;;;;;;11.90;11.30;;;35.10;99.90;;;;;;5077915;28;20472;-49
2023/07/19 11:44:42;;;;;;;12.50;11.80;;;34.70;99.90;;;;;;5067366;28;20549;-45
2023/07/19 11:47:07;;;;;;;12.63;12.03;;;34.40;99.90;;;;;;5077834;28;20668;-43
2023/07/19 11:49:33;;;;;;;12.40;11.80;;;34.20;99.90;;;;;;5064527;28;20435;-45
2023/07/19 11:51:58;;;;;;;12.50;11.80;;;34.20;99.90;;;;;;5058632;28;20243;-47
2023/07/19 11:54:24;;;;;;;13.00;12.20;;;34.60;99.90;;;;;;5060207;28;20614;-45
2023/07/19 11:56:50;;;;;;;12.77;12.10;;;34.70;99.90;;;;;;5060290;28;20544;-49
2023/07/19 11:59:15;;;;;;;12.20;11.50;;;34.60;99.90;;;;;;5057813;28;20199;-50
2023/07/19 12:01:42;;;;;;;12.97;12.17;;;34.60;99.90;;;;;;5059931;28;20173;-44
2023/07/19 12:04:09;;;;;;;11.67;11.17;;;34.50;99.90;;;;;;5059797;28;20181;-42
2023/07/19 12:06:34;;;;;;;13.17;12.47;;;34.20;99.90;;;;;;5059731;28;20403;-50
2023/07/19 12:09:00;;;;;;;13.33;12.67;;;34.00;99.90;;;;;;5059430;28;20480;-43
2023/07/19 12:11:26;;;;;;;13.13;12.50;;;34.40;99.90;;;;;;5059583;28;20216;-44
2023/07/19 12:13:52;;;;;;;12.83;12.13;;;34.90;99.90;;;;;;5058779;28;20231;-48
2023/07/19 12:16:17;;;;;;;12.50;11.80;;;35.50;99.90;;;;;;5059313;28;20412;-46
2023/07/19 12:18:43;;;;;;;12.80;12.10;;;36.20;99.90;;;;;;5063005;28;20196;-43
2023/07/19 12:21:08;;;;;;;11.40;10.97;;;36.70;99.90;;;;;;5065363;28;20252;-46
2023/07/19 12:23:36;;;;;;;12.53;11.93;;;36.80;99.90;;;;;;5067951;28;20184;-44
2023/07/19 12:26:02;;;;;;;12.23;11.63;;;36.30;99.90;;;;;;5064960;28;20227;-43
2023/07/19 12:28:27;;;;;;;11.93;11.23;;;36.50;99.90;;;;;;5065487;28;20450;-45